createdAt,value
2022-12-31T00:01:07.637Z,99888.87
2022-12-31T00:03:12.233Z,99879.78
2022-12-31T00:05:16.871Z,99877.89
2022-12-31T00:07:21.215Z,99883.79
2022-12-31T00:09:25.599Z,99878.95
2022-12-31T00:11:30.082Z,99873.61
2022-12-31T00:13:34.452Z,99866.33
2022-12-31T00:15:38.840Z,99872.34
2022-12-31T00:17:43.197Z,99863.58
2022-12-31T00:19:47.515Z,99867.67
2022-12-31T00:21:51.919Z,99864.57
2022-12-31T00:23:56.252Z,99864.73
2022-12-31T00:26:00.740Z,99872.16
2022-12-31T00:28:05.123Z,99866.63
2022-12-31T00:30:09.458Z,99861.98
2022-12-31T00:32:13.840Z,99864.62
2022-12-31T00:34:18.180Z,99864.91
2022-12-31T00:36:22.562Z,99859.5
2022-12-31T00:38:27.031Z,99861.28
2022-12-31T00:40:31.351Z,99862.92
2022-12-31T00:42:35.703Z,99867.53
2022-12-31T00:44:40.089Z,99868.09
2022-12-31T00:48:46.055Z,99870.06
2022-12-31T00:50:50.516Z,99881.2
2022-12-31T00:52:54.948Z,99882.66
2022-12-31T00:54:59.262Z,99881.77
2022-12-31T00:57:03.626Z,99877.33
2022-12-31T00:59:08.057Z,99886.39
2022-12-31T01:01:12.762Z,99890.89
2022-12-31T01:03:17.439Z,99887.7
2022-12-31T01:05:21.881Z,99885.28
2022-12-31T01:07:26.266Z,99895.24
2022-12-31T01:09:30.734Z,99894.52
2022-12-31T01:11:35.092Z,99894.67
2022-12-31T01:13:39.623Z,99894.75
2022-12-31T01:15:44.048Z,99886.52
2022-12-31T01:17:48.474Z,99892.73
2022-12-31T01:19:52.804Z,99885.3
2022-12-31T01:21:57.144Z,99880.36
2022-12-31T01:24:01.626Z,99877.03
2022-12-31T01:26:05.982Z,99873.83
2022-12-31T01:28:10.322Z,99872.13
2022-12-31T01:30:14.648Z,99867.16
2022-12-31T01:32:19.000Z,99862.5
2022-12-31T01:34:23.418Z,99867.27
2022-12-31T01:36:27.892Z,99870.3
2022-12-31T01:38:32.262Z,99869.05
2022-12-31T01:40:36.571Z,99871.7
2022-12-31T01:42:40.976Z,99876.66
2022-12-31T01:44:45.316Z,99882.37
2022-12-31T01:46:49.702Z,99893.4
2022-12-31T01:48:54.046Z,99902.02
2022-12-31T01:50:58.383Z,99897.93
2022-12-31T01:53:02.736Z,99904.08
2022-12-31T01:55:07.120Z,99906
2022-12-31T01:57:11.450Z,99907.66
2022-12-31T01:59:15.820Z,99910.89
2022-12-31T02:01:20.683Z,99914.22
2022-12-31T02:03:25.458Z,99912.24
2022-12-31T02:05:29.976Z,99905.86
2022-12-31T02:07:34.375Z,99911.42
2022-12-31T02:09:38.729Z,99911.82
2022-12-31T02:11:43.065Z,99918.88
2022-12-31T02:13:47.436Z,99921.73
2022-12-31T02:15:55.961Z,99920.16
2022-12-31T02:18:00.487Z,99922.47
2022-12-31T02:20:04.850Z,99925.6
2022-12-31T02:22:09.321Z,99917.74
2022-12-31T02:24:14.078Z,99910.05
2022-12-31T02:26:18.430Z,99905.47
2022-12-31T02:28:22.733Z,99909.28
2022-12-31T02:30:27.103Z,99911.88
2022-12-31T02:32:31.558Z,99912.48
2022-12-31T02:34:35.905Z,99903.73
2022-12-31T02:36:40.265Z,99909.57
2022-12-31T02:38:44.580Z,99908.34
2022-12-31T02:40:48.946Z,99913.21
2022-12-31T02:42:56.720Z,99917.58
2022-12-31T02:45:01.133Z,99916.73
2022-12-31T02:47:05.481Z,99928.75
2022-12-31T02:49:09.794Z,99934.05
2022-12-31T02:51:14.178Z,99934.84
2022-12-31T02:53:18.506Z,99935.83
2022-12-31T02:55:22.835Z,99937.88
2022-12-31T02:57:27.194Z,99925.14
2022-12-31T02:59:31.498Z,99924.02
2022-12-31T03:01:36.238Z,99922.42
2022-12-31T03:03:41.204Z,99921.71
2022-12-31T03:05:45.606Z,99922.22
2022-12-31T03:07:49.898Z,99920.86
2022-12-31T03:09:54.326Z,99929.31
2022-12-31T03:11:58.657Z,99928.35
2022-12-31T03:14:02.982Z,99933.63
2022-12-31T03:16:07.435Z,99930.97
2022-12-31T03:18:11.812Z,99934.38
2022-12-31T03:20:16.121Z,99937.72
2022-12-31T03:22:20.480Z,99938.42
2022-12-31T03:24:24.883Z,99939.14
2022-12-31T03:26:29.238Z,99937.99
2022-12-31T03:28:33.538Z,99937.34
2022-12-31T03:30:37.951Z,99944.03
2022-12-31T03:32:42.302Z,99944.77
2022-12-31T03:34:46.633Z,99948.64
2022-12-31T03:36:50.984Z,99954.99
2022-12-31T03:38:55.317Z,99955.11
2022-12-31T03:40:59.646Z,99967.94
2022-12-31T03:43:03.981Z,99971.34
2022-12-31T03:45:08.294Z,99975.77
2022-12-31T03:47:12.675Z,99974.55
2022-12-31T03:49:16.971Z,99983.55
2022-12-31T03:51:21.302Z,99974.6
2022-12-31T03:53:25.776Z,99971.77
2022-12-31T03:55:30.197Z,99967.14
2022-12-31T03:57:34.538Z,99974
2022-12-31T03:59:39.013Z,99962.94
2022-12-31T04:01:43.685Z,99964.3
2022-12-31T04:03:48.164Z,99957.66
2022-12-31T04:05:52.583Z,99952.41
2022-12-31T04:07:56.900Z,99956.91
2022-12-31T04:10:01.271Z,99955.05
2022-12-31T04:12:05.591Z,99945.17
2022-12-31T04:14:09.928Z,99950.25
2022-12-31T04:16:14.385Z,99946.44
2022-12-31T04:18:18.833Z,99950.08
2022-12-31T04:20:23.164Z,99949.28
2022-12-31T04:22:27.647Z,99944.45
2022-12-31T04:24:32.034Z,99939.41
2022-12-31T04:26:36.405Z,99932.83
2022-12-31T04:29:26.624Z,99925.92
2022-12-31T04:31:31.055Z,99932.09
2022-12-31T04:33:35.538Z,99929.58
2022-12-31T04:35:39.977Z,99926.63
2022-12-31T04:37:44.304Z,99934.02
2022-12-31T04:39:48.615Z,99940.19
2022-12-31T04:41:52.979Z,99955.05
2022-12-31T04:43:57.280Z,99962.19
2022-12-31T04:46:01.726Z,99961.55
2022-12-31T04:48:06.191Z,99954.13
2022-12-31T04:50:10.512Z,99957.89
2022-12-31T04:52:14.847Z,99958.54
2022-12-31T04:54:19.202Z,99957.3
2022-12-31T04:56:23.532Z,99950.48
2022-12-31T04:58:27.906Z,99939.76
2022-12-31T05:00:32.215Z,99946.41
2022-12-31T05:02:37.167Z,99946.36
2022-12-31T05:04:41.929Z,99943.3
2022-12-31T05:06:46.309Z,99942.25
2022-12-31T05:08:50.682Z,99946.64
2022-12-31T05:10:55.037Z,99935.85
2022-12-31T05:12:59.400Z,99941.95
2022-12-31T05:15:03.757Z,99942.94
2022-12-31T05:17:08.082Z,99936.33
2022-12-31T05:19:12.394Z,99939.4
2022-12-31T05:21:16.740Z,99940.35
2022-12-31T05:23:21.094Z,99941.89
2022-12-31T05:25:25.494Z,99944.3
2022-12-31T05:27:29.897Z,99946.35
2022-12-31T05:29:34.254Z,99948.27
2022-12-31T05:31:38.588Z,99953.2
2022-12-31T05:33:42.946Z,99955.91
2022-12-31T05:35:47.274Z,99955.23
2022-12-31T05:37:51.619Z,99955.37
2022-12-31T05:39:55.997Z,99958.02
2022-12-31T05:42:00.357Z,99956.19
2022-12-31T05:44:04.697Z,99951.44
2022-12-31T05:46:09.240Z,99940.44
2022-12-31T05:48:13.717Z,99945.92
2022-12-31T05:50:18.086Z,99938.19
2022-12-31T05:52:22.399Z,99942.55
2022-12-31T05:54:26.769Z,99957.08
2022-12-31T05:56:31.163Z,99957.81
2022-12-31T05:58:35.542Z,99957.27
2022-12-31T06:00:39.844Z,99960.61
2022-12-31T06:02:44.359Z,99957.3
2022-12-31T06:04:48.895Z,99951.52
2022-12-31T06:06:53.253Z,99948.16
2022-12-31T06:08:57.612Z,99948.4
2022-12-31T06:11:01.922Z,99953.44
2022-12-31T06:13:06.271Z,99958.58
2022-12-31T06:15:10.671Z,99963.13
2022-12-31T06:17:15.037Z,99950.47
2022-12-31T06:19:19.551Z,99953.05
2022-12-31T06:21:23.936Z,99954.78
2022-12-31T06:23:28.278Z,99955.26
2022-12-31T06:25:32.630Z,99958.69
2022-12-31T06:27:36.992Z,99966.82
2022-12-31T06:29:41.382Z,99980.64
2022-12-31T06:31:45.735Z,99987.7
2022-12-31T06:33:50.105Z,99984.16
2022-12-31T06:35:54.485Z,99982.31
2022-12-31T06:37:58.809Z,99981.97
2022-12-31T06:40:03.273Z,99979.7
2022-12-31T06:42:07.635Z,99976.34
2022-12-31T06:44:12.006Z,99958.65
2022-12-31T06:46:16.507Z,99965.45
2022-12-31T06:48:20.941Z,99971.58
2022-12-31T06:50:25.400Z,99964.94
2022-12-31T06:52:29.991Z,99952.04
2022-12-31T06:54:34.335Z,99955.49
2022-12-31T06:56:38.647Z,99957.67
2022-12-31T06:58:42.985Z,99957.14
2022-12-31T07:00:47.343Z,99963.24
2022-12-31T07:02:51.859Z,99976.89
2022-12-31T07:04:56.339Z,99971.41
2022-12-31T07:07:00.781Z,99973.02
2022-12-31T07:09:05.176Z,99989.11
2022-12-31T07:11:09.615Z,99980.43
2022-12-31T07:13:14.040Z,99981.01
2022-12-31T07:15:18.351Z,99987.39
2022-12-31T07:17:22.720Z,99985.44
2022-12-31T07:19:27.045Z,99980.34
2022-12-31T07:21:31.379Z,100000.63
2022-12-31T07:23:35.732Z,99998.17
2022-12-31T07:25:40.094Z,99983.05
2022-12-31T07:27:44.466Z,99991.49
2022-12-31T07:29:48.873Z,99988.66
2022-12-31T07:31:53.358Z,99995.09
2022-12-31T07:33:57.704Z,99993.77
2022-12-31T07:36:02.030Z,99993.22
2022-12-31T07:38:06.375Z,99998.06
2022-12-31T07:40:10.772Z,100001.6
2022-12-31T07:42:15.183Z,100002.55
2022-12-31T07:44:19.561Z,99996.36
2022-12-31T07:46:24.031Z,100004.25
2022-12-31T07:48:28.488Z,99993.02
2022-12-31T07:50:32.870Z,99997.13
2022-12-31T07:52:37.154Z,99993.15
2022-12-31T07:54:41.482Z,99992.64
2022-12-31T07:56:45.883Z,99998.59
2022-12-31T07:58:50.381Z,100000.97
2022-12-31T08:00:54.831Z,100016.45
2022-12-31T08:02:59.595Z,100017.38
2022-12-31T08:05:04.087Z,100018
2022-12-31T08:07:08.500Z,100013.21
2022-12-31T08:09:12.966Z,100014.64
2022-12-31T08:11:17.367Z,100019.53
2022-12-31T08:13:21.770Z,100020.99
2022-12-31T08:15:31.375Z,100015.84
2022-12-31T08:17:35.771Z,100020.32
2022-12-31T08:19:40.211Z,100016.28
2022-12-31T08:21:44.737Z,100017.53
2022-12-31T08:23:49.123Z,100009.55
2022-12-31T08:25:53.559Z,100020.54
2022-12-31T08:27:57.939Z,100004.94
2022-12-31T08:30:02.318Z,100018.01
2022-12-31T08:32:06.813Z,100023.66
2022-12-31T08:34:11.230Z,100025.5
2022-12-31T08:36:15.649Z,100026.8
2022-12-31T08:38:20.042Z,100023.98
2022-12-31T08:40:24.632Z,100023.88
2022-12-31T08:42:29.325Z,100024.06
2022-12-31T08:44:33.840Z,100018.65
2022-12-31T08:46:38.246Z,100026.95
2022-12-31T08:48:42.688Z,100020.58
2022-12-31T08:50:47.183Z,100014
2022-12-31T08:52:51.559Z,100013.69
2022-12-31T08:54:55.969Z,100015.66
2022-12-31T08:57:00.338Z,100014.14
2022-12-31T08:59:04.783Z,100019.16
2022-12-31T09:01:09.501Z,100013.66
2022-12-31T09:03:14.327Z,100001.72
2022-12-31T09:05:18.696Z,99998.86
2022-12-31T09:07:23.134Z,99990.1
2022-12-31T09:09:27.478Z,99982.95
2022-12-31T09:11:31.825Z,99988.53
2022-12-31T09:13:36.162Z,99997.44
2022-12-31T09:15:40.545Z,100000.47
2022-12-31T09:17:45.014Z,100004.52
2022-12-31T09:19:49.376Z,99999.2
2022-12-31T09:21:53.801Z,100002.55
2022-12-31T09:23:58.167Z,100000.56
2022-12-31T09:26:09.265Z,99991.98
2022-12-31T09:28:13.636Z,100001.91
2022-12-31T09:30:18.028Z,100008.78
2022-12-31T09:32:22.433Z,100008.41
2022-12-31T09:34:26.915Z,99999.17
2022-12-31T09:36:31.310Z,100006.53
2022-12-31T09:38:35.852Z,100009.76
2022-12-31T09:40:40.257Z,100001.06
2022-12-31T09:42:44.666Z,99998.63
2022-12-31T09:44:49.053Z,99998.97
2022-12-31T09:46:53.466Z,100000.61
2022-12-31T09:48:57.888Z,99999.57
2022-12-31T09:51:02.210Z,100001.84
2022-12-31T09:53:06.585Z,99999.59
2022-12-31T09:55:10.945Z,99993.29
2022-12-31T09:57:15.249Z,99994.94
2022-12-31T09:59:19.733Z,99998.77
2022-12-31T10:01:24.455Z,99999.41
2022-12-31T10:03:29.177Z,100003.39
2022-12-31T10:05:33.665Z,100001.01
2022-12-31T10:07:38.073Z,100004.17
2022-12-31T10:09:42.456Z,99999.48
2022-12-31T10:11:46.800Z,99993.35
2022-12-31T10:13:51.317Z,99988.81
2022-12-31T10:15:55.726Z,99992.39
2022-12-31T10:18:00.129Z,99995.7
2022-12-31T10:20:04.556Z,99987.98
2022-12-31T10:22:08.933Z,99979.02
2022-12-31T10:24:13.405Z,99975.42
2022-12-31T10:26:17.731Z,99976.59
2022-12-31T10:28:22.105Z,99985.07
2022-12-31T10:30:26.522Z,99980.39
2022-12-31T10:32:32.714Z,99979.59
2022-12-31T10:34:37.132Z,99982.66
2022-12-31T10:36:41.547Z,99982.27
2022-12-31T10:38:45.899Z,99978.45
2022-12-31T10:40:50.310Z,99970.05
2022-12-31T10:42:54.676Z,99970.14
2022-12-31T10:44:59.093Z,99970.77
2022-12-31T10:47:03.433Z,99966.39
2022-12-31T10:49:07.809Z,99967.03
2022-12-31T10:51:12.207Z,99966.08
2022-12-31T10:53:16.801Z,99958.91
2022-12-31T10:55:21.107Z,99961.16
2022-12-31T10:57:25.455Z,99956.37
2022-12-31T10:59:29.807Z,99956.73
2022-12-31T11:01:34.609Z,99950.8
2022-12-31T11:03:39.345Z,99964.91
2022-12-31T11:05:43.958Z,99965.7
2022-12-31T11:07:48.617Z,99970.78
2022-12-31T11:09:52.936Z,99975.55
2022-12-31T11:11:57.323Z,99971.15
2022-12-31T11:14:01.773Z,99968.99
2022-12-31T11:16:06.236Z,99964.47
2022-12-31T11:18:10.654Z,99961.5
2022-12-31T11:20:15.031Z,99966.64
2022-12-31T11:22:19.479Z,99962.59
2022-12-31T11:24:23.857Z,99959.28
2022-12-31T11:26:28.267Z,99958.92
2022-12-31T11:28:32.631Z,99953.2
2022-12-31T11:30:36.965Z,99950.19
2022-12-31T11:32:41.569Z,99944.42
2022-12-31T11:34:45.902Z,99945.83
2022-12-31T11:36:50.229Z,99943.29
2022-12-31T11:38:54.599Z,99940.01
2022-12-31T11:40:58.899Z,99937.61
2022-12-31T11:43:03.297Z,99940.05
2022-12-31T11:45:07.599Z,99938.34
2022-12-31T11:47:11.939Z,99943.76
2022-12-31T11:49:16.393Z,99944.64
2022-12-31T11:51:20.727Z,99936.83
2022-12-31T11:53:25.158Z,99927.25
2022-12-31T11:55:29.534Z,99935.09
2022-12-31T11:57:33.889Z,99937.15
2022-12-31T11:59:38.324Z,99936.58
2022-12-31T12:01:42.837Z,99943.06
2022-12-31T12:03:47.407Z,99940.86
2022-12-31T12:05:51.891Z,99944.15
2022-12-31T12:07:56.212Z,99931.92
2022-12-31T12:10:00.666Z,99932.11
2022-12-31T12:12:05.102Z,99928.66
2022-12-31T12:14:09.455Z,99930.17
2022-12-31T12:16:13.874Z,99936.26
2022-12-31T12:18:18.240Z,99930.6
2022-12-31T12:20:22.543Z,99940.23
2022-12-31T12:22:26.826Z,99941.78
2022-12-31T12:24:31.217Z,99945.71
2022-12-31T12:26:35.644Z,99946.05
2022-12-31T12:28:45.084Z,99954.7
2022-12-31T12:30:49.425Z,99949.72
2022-12-31T12:32:53.806Z,99952.2
2022-12-31T12:34:58.181Z,99948.82
2022-12-31T12:37:02.640Z,99959.55
2022-12-31T12:39:07.042Z,99961.56
2022-12-31T12:41:11.423Z,99966.02
2022-12-31T12:43:15.795Z,99960.16
2022-12-31T12:45:20.209Z,99953.83
2022-12-31T12:47:24.587Z,99960.55
2022-12-31T12:49:29.153Z,99968.41
2022-12-31T12:51:33.496Z,99971.18
2022-12-31T12:53:37.823Z,99968.94
2022-12-31T12:55:42.173Z,99966.39
2022-12-31T12:57:46.578Z,99966.81
2022-12-31T12:59:51.037Z,99957.13
2022-12-31T13:01:55.782Z,99968.94
2022-12-31T13:04:35.134Z,99969
2022-12-31T13:06:39.792Z,99968.81
2022-12-31T13:08:44.189Z,99968.15
2022-12-31T13:10:48.565Z,99972.88
2022-12-31T13:13:24.520Z,99973.33
2022-12-31T13:15:29.484Z,99975.48
2022-12-31T13:17:33.851Z,99976.31
2022-12-31T13:19:38.219Z,99974.5
2022-12-31T13:21:42.597Z,99980.8
2022-12-31T13:23:46.970Z,99976.56
2022-12-31T13:25:51.336Z,99980.39
2022-12-31T13:27:55.681Z,99972.22
2022-12-31T13:29:59.981Z,99981.95
2022-12-31T13:32:04.513Z,99980.52
2022-12-31T13:34:09.197Z,99985.03
2022-12-31T13:36:13.540Z,99994.63
2022-12-31T13:38:17.936Z,99986.7
2022-12-31T13:40:22.330Z,99983.58
2022-12-31T13:42:26.740Z,99989.17
2022-12-31T13:44:31.105Z,99992.21
2022-12-31T13:46:35.447Z,99994.52
2022-12-31T13:48:39.825Z,99994.42
2022-12-31T13:50:44.182Z,99993
2022-12-31T13:52:48.602Z,99998.09
2022-12-31T13:54:52.984Z,99996.7
2022-12-31T13:56:57.424Z,99990.52
2022-12-31T13:59:01.881Z,99996.54
2022-12-31T14:01:06.492Z,99995.09
2022-12-31T14:03:11.305Z,99992.7
2022-12-31T14:05:15.737Z,99991.27
2022-12-31T14:07:20.083Z,99990.92
2022-12-31T14:09:24.600Z,99993.66
2022-12-31T14:11:28.983Z,99995
2022-12-31T14:13:35.849Z,99997
2022-12-31T14:15:40.262Z,99999.39
2022-12-31T14:17:44.620Z,99993.75
2022-12-31T14:19:48.996Z,99999.52
2022-12-31T14:21:53.326Z,99997.61
2022-12-31T14:23:57.792Z,99999.7
2022-12-31T14:26:02.191Z,99997.28
2022-12-31T14:28:06.696Z,99999.57
2022-12-31T14:30:11.129Z,100002.6
2022-12-31T14:32:15.510Z,100005.94
2022-12-31T14:34:19.949Z,100004.13
2022-12-31T14:36:24.380Z,100014.64
2022-12-31T14:38:28.786Z,100016.05
2022-12-31T14:40:33.211Z,100016.56
2022-12-31T14:42:37.620Z,100014.4
2022-12-31T14:44:42.161Z,100017.41
2022-12-31T14:46:46.550Z,100012.56
2022-12-31T14:48:51.027Z,100009.34
2022-12-31T14:50:55.441Z,100003.11
2022-12-31T14:52:59.873Z,99997.13
2022-12-31T14:55:04.378Z,100002.53
2022-12-31T14:57:08.777Z,100000.41
2022-12-31T14:59:13.156Z,99996.89
2022-12-31T15:01:17.781Z,100002.19
2022-12-31T15:03:22.788Z,100002.08
2022-12-31T15:05:27.314Z,100004.63
2022-12-31T15:07:31.762Z,100003.73
2022-12-31T15:09:36.139Z,99997.22
2022-12-31T15:11:40.568Z,100001.94
2022-12-31T15:13:44.955Z,100003.07
2022-12-31T15:15:49.338Z,100003.19
2022-12-31T15:17:53.779Z,100003.08
2022-12-31T15:19:58.178Z,100001.95
2022-12-31T15:22:02.621Z,99996.72
2022-12-31T15:24:06.969Z,100000.7
2022-12-31T15:26:11.362Z,99987.15
2022-12-31T15:28:15.712Z,99987.83
2022-12-31T15:30:20.042Z,99998.77
2022-12-31T15:32:24.458Z,100002.73
2022-12-31T15:34:28.977Z,100019.98
2022-12-31T15:36:33.358Z,100018.52
2022-12-31T15:38:37.845Z,100035.63
2022-12-31T15:40:42.279Z,100031.59
2022-12-31T15:42:50.886Z,100030.31
2022-12-31T15:44:55.367Z,100028.96
2022-12-31T15:46:59.792Z,100034.64
2022-12-31T15:49:13.550Z,100035.27
2022-12-31T15:51:19.815Z,100034.67
2022-12-31T15:53:24.270Z,100033.86
2022-12-31T15:55:28.659Z,100043.98
2022-12-31T15:57:33.254Z,100033.11
2022-12-31T15:59:37.716Z,100044.41
2022-12-31T16:01:42.490Z,100044.91
2022-12-31T16:03:47.121Z,100058.33
2022-12-31T16:05:51.611Z,100064.82
2022-12-31T16:07:56.006Z,100062.03
2022-12-31T16:10:00.604Z,100065.3
2022-12-31T16:12:05.016Z,100064.66
2022-12-31T16:14:09.508Z,100067.8
2022-12-31T16:16:14.053Z,100068.84
2022-12-31T16:18:24.027Z,100078.91
2022-12-31T16:20:28.463Z,100081.63
2022-12-31T16:22:32.922Z,100080.42
2022-12-31T16:25:19.828Z,100086.75
2022-12-31T16:27:35.448Z,100087
2022-12-31T16:29:39.860Z,100090.23
2022-12-31T16:31:44.254Z,100084.33
2022-12-31T16:33:48.678Z,100097.82
2022-12-31T16:35:53.108Z,100096.23
2022-12-31T16:37:57.519Z,100091.05
2022-12-31T16:40:01.943Z,100100.65
2022-12-31T16:42:06.364Z,100101.06
2022-12-31T16:44:10.833Z,100105.2
2022-12-31T16:46:15.501Z,100112.98
2022-12-31T16:48:20.074Z,100112.83
2022-12-31T16:50:24.491Z,100113.97
2022-12-31T16:52:29.009Z,100107.45
2022-12-31T16:54:33.528Z,100114.56
2022-12-31T16:56:38.265Z,100114.3
2022-12-31T16:58:42.873Z,100115.98
2022-12-31T17:00:47.436Z,100117.14
2022-12-31T17:02:52.074Z,100115.41
2022-12-31T17:04:57.654Z,100114.89
2022-12-31T17:07:02.071Z,100116.84
2022-12-31T17:09:06.536Z,100119.91
2022-12-31T17:11:11.049Z,100118.44
2022-12-31T17:13:30.487Z,100120.04
2022-12-31T17:15:35.068Z,100130.69
2022-12-31T17:17:39.496Z,100129.38
2022-12-31T17:19:43.882Z,100124.08
2022-12-31T17:21:48.394Z,100129.8
2022-12-31T17:23:52.976Z,100135.03
2022-12-31T17:25:57.449Z,100133.94
2022-12-31T17:28:01.900Z,100135.17
2022-12-31T17:30:06.254Z,100134.81
2022-12-31T17:32:10.751Z,100135.26
2022-12-31T17:34:15.264Z,100139.42
2022-12-31T17:36:19.743Z,100131.39
2022-12-31T17:38:24.177Z,100132.63
2022-12-31T17:40:52.227Z,100141.13
2022-12-31T17:42:57.285Z,100134.02
2022-12-31T17:45:01.784Z,100146.02
2022-12-31T17:47:06.219Z,100146.31
2022-12-31T17:49:10.645Z,100143.58
2022-12-31T17:51:15.045Z,100140.11
2022-12-31T17:53:27.869Z,100142.22
2022-12-31T17:55:32.331Z,100147.3
2022-12-31T17:57:36.844Z,100145.92
2022-12-31T17:59:41.277Z,100153.52
2022-12-31T18:01:46.156Z,100155.2
2022-12-31T18:03:51.296Z,100160.81
2022-12-31T18:05:55.689Z,100159.66
2022-12-31T18:08:00.107Z,100160.35
2022-12-31T18:10:04.625Z,100159.39
2022-12-31T18:12:09.054Z,100163.77
2022-12-31T18:14:13.507Z,100164.16
2022-12-31T18:16:18.242Z,100164.54
2022-12-31T18:18:26.529Z,100170.17
2022-12-31T18:20:30.992Z,100163.8
2022-12-31T18:22:35.404Z,100168.19
2022-12-31T18:24:39.932Z,100170.33
2022-12-31T18:26:44.305Z,100174.19
2022-12-31T18:28:48.715Z,100174.04
2022-12-31T18:30:53.191Z,100173.08
2022-12-31T18:32:57.870Z,100165.05
2022-12-31T18:35:02.337Z,100156.42
2022-12-31T18:37:06.728Z,100158.19
2022-12-31T18:39:11.338Z,100161.91
2022-12-31T18:41:15.813Z,100160.09
2022-12-31T18:43:20.279Z,100167.55
2022-12-31T18:45:25.003Z,100160.84
2022-12-31T18:47:37.877Z,100156.42
2022-12-31T18:49:42.459Z,100161.19
2022-12-31T18:51:46.888Z,100155.59
2022-12-31T18:53:51.296Z,100151.51
2022-12-31T18:55:55.882Z,100149.44
2022-12-31T18:58:00.288Z,100148.64
2022-12-31T19:00:04.756Z,100143.44
2022-12-31T19:02:09.386Z,100145.77
2022-12-31T19:04:14.032Z,100144.83
2022-12-31T19:06:18.569Z,100146.52
2022-12-31T19:08:23.036Z,100152.06
2022-12-31T19:10:27.552Z,100155.8
2022-12-31T19:12:32.004Z,100152.89
2022-12-31T19:14:36.602Z,100148.73
2022-12-31T19:16:41.193Z,100149.98
2022-12-31T19:18:45.664Z,100150.69
2022-12-31T19:20:50.029Z,100150.28
2022-12-31T19:22:54.444Z,100148.73
2022-12-31T19:24:58.865Z,100146.94
2022-12-31T19:27:03.296Z,100145.99
2022-12-31T19:29:07.705Z,100152.33
2022-12-31T19:31:12.141Z,100151.23
2022-12-31T19:33:16.698Z,100150.09
2022-12-31T19:35:21.128Z,100146.48
2022-12-31T19:37:25.532Z,100144.52
2022-12-31T19:39:29.973Z,100145.59
2022-12-31T19:41:34.508Z,100147.89
2022-12-31T19:43:38.923Z,100138.19
2022-12-31T19:45:43.443Z,100145.55
2022-12-31T19:47:47.947Z,100138.36
2022-12-31T19:49:52.384Z,100143.84
2022-12-31T19:51:56.841Z,100148.8
2022-12-31T19:54:01.353Z,100150.74
2022-12-31T19:56:05.763Z,100160.05
2022-12-31T19:58:10.226Z,100149.31
2022-12-31T20:00:14.627Z,100151.12
2022-12-31T20:02:19.493Z,100157.15
2022-12-31T20:04:24.160Z,100161.56
2022-12-31T20:06:28.621Z,100161.21
2022-12-31T20:08:33.136Z,100160.98
2022-12-31T20:10:37.577Z,100159.12
2022-12-31T20:12:45.884Z,100157.48
2022-12-31T20:14:50.314Z,100160.45
2022-12-31T20:16:54.848Z,100161.16
2022-12-31T20:18:59.281Z,100161.06
2022-12-31T20:21:03.859Z,100160.77
2022-12-31T20:23:08.285Z,100161.04
2022-12-31T20:25:12.668Z,100161.79
2022-12-31T20:27:19.745Z,100160.7
2022-12-31T20:29:24.129Z,100161.88
2022-12-31T20:31:28.525Z,100164.04
2022-12-31T20:33:32.942Z,100165.56
2022-12-31T20:35:37.382Z,100171.03
2022-12-31T20:37:41.776Z,100175.06
2022-12-31T20:39:46.200Z,100179.72
2022-12-31T20:41:50.639Z,100176.49
2022-12-31T20:43:55.188Z,100176.58
2022-12-31T20:45:59.664Z,100167.55
2022-12-31T20:48:04.087Z,100169.64
2022-12-31T20:50:13.483Z,100168.25
2022-12-31T20:52:17.833Z,100163.52
2022-12-31T20:54:22.201Z,100162.14
2022-12-31T20:56:26.718Z,100161.55
2022-12-31T20:58:31.125Z,100168.19
2022-12-31T21:00:35.597Z,100161.2
2022-12-31T21:02:46.660Z,100156.45
2022-12-31T21:05:10.740Z,100159.92
2022-12-31T21:07:15.816Z,100165.5
2022-12-31T21:09:20.191Z,100161.19
2022-12-31T21:11:24.615Z,100161.77
2022-12-31T21:13:29.014Z,100168.36
2022-12-31T21:15:33.530Z,100161.95
2022-12-31T21:17:38.016Z,100159.16
2022-12-31T21:19:42.418Z,100154.94
2022-12-31T21:21:46.943Z,100150.67
2022-12-31T21:23:51.367Z,100149.03
2022-12-31T21:25:55.814Z,100140.28
2022-12-31T21:28:00.273Z,100143.33
2022-12-31T21:30:21.276Z,100150.03
2022-12-31T21:32:25.833Z,100154.38
2022-12-31T21:34:30.242Z,100151.53
2022-12-31T21:36:34.712Z,100148.86
2022-12-31T21:38:39.139Z,100151.04
2022-12-31T21:40:43.538Z,100148.59
2022-12-31T21:42:48.030Z,100154.69
2022-12-31T21:44:52.484Z,100141.52
2022-12-31T21:47:38.483Z,100151.96
2022-12-31T21:49:51.245Z,100157.25
2022-12-31T21:51:55.706Z,100154.61
2022-12-31T21:54:00.162Z,100155.91
2022-12-31T21:56:04.611Z,100161.92
2022-12-31T21:58:39.015Z,100162.89
2022-12-31T22:00:44.645Z,100167.22
2022-12-31T22:03:01.004Z,100170.98
2022-12-31T22:05:21.562Z,100178.54
2022-12-31T22:07:29.295Z,100177.94
2022-12-31T22:09:33.704Z,100180.05
2022-12-31T22:11:38.105Z,100173.25
2022-12-31T22:13:42.580Z,100171.22
2022-12-31T22:15:47.081Z,100167.95
2022-12-31T22:17:51.724Z,100166.02
2022-12-31T22:20:27.778Z,100161.73
2022-12-31T22:22:32.925Z,100164.3
2022-12-31T22:24:37.383Z,100163.08
2022-12-31T22:26:47.630Z,100155.03
2022-12-31T22:28:52.222Z,100166.47
2022-12-31T22:30:56.749Z,100162.72
2022-12-31T22:33:01.285Z,100159.81
2022-12-31T22:35:05.824Z,100171.26
2022-12-31T22:37:56.649Z,100167.76
2022-12-31T22:40:09.969Z,100169.48
2022-12-31T22:42:14.432Z,100171.07
2022-12-31T22:44:18.802Z,100169.06
2022-12-31T22:46:23.358Z,100174.72
2022-12-31T22:48:27.861Z,100171.9
2022-12-31T22:50:32.308Z,100173.46
2022-12-31T22:52:36.829Z,100166.03
2022-12-31T22:54:41.251Z,100165.81
2022-12-31T22:56:45.679Z,100165.03
2022-12-31T22:58:50.104Z,100169.19
2022-12-31T23:00:54.556Z,100177.14
2022-12-31T23:02:59.094Z,100175.19
2022-12-31T23:05:17.101Z,100174.42
2022-12-31T23:07:21.535Z,100178.41
2022-12-31T23:09:25.982Z,100179.12
2022-12-31T23:11:30.416Z,100177.42
2022-12-31T23:13:34.832Z,100181.92
2022-12-31T23:15:39.220Z,100180.84
2022-12-31T23:17:43.731Z,100177.04
2022-12-31T23:19:48.191Z,100170.08
2022-12-31T23:21:52.529Z,100171.77
2022-12-31T23:23:56.926Z,100173.94
2022-12-31T23:26:01.410Z,100170.3
2022-12-31T23:28:05.880Z,100170.78
2022-12-31T23:30:10.400Z,100164.84
2022-12-31T23:32:14.820Z,100166.03
2022-12-31T23:34:19.326Z,100160.45
2022-12-31T23:38:28.953Z,100157.41
2022-12-31T23:40:33.364Z,100157.23
2022-12-31T23:42:38.081Z,100152.36
2022-12-31T23:44:42.526Z,100154.56
2022-12-31T23:48:48.543Z,100171.8
2022-12-31T23:50:55.407Z,100174.23
2022-12-31T23:52:59.823Z,100170.47
2022-12-31T23:55:04.351Z,100177.76
2022-12-31T23:57:08.755Z,100190.27
2022-12-31T23:59:13.176Z,100194.84
